Grand Canyon National Park Information

FAA: GCN - ICAO: KGCN

Grand Canyon National Park (Airport) Location

State Arizona
County Coconino
City Grand Canyon
Grand Canyon National Park (Airport) is 6 miles south of Grand Canyon, AZ.
Latitude 35-57-08.5000N
Longitude 112-08-49.1000W
Elevation 6,608ft

Grand Canyon National Park METARs

METAR KGCN 301754Z 07007G15KT 040V100 10SM CLR 13/M07 A3035 RMK AO2 SLP251 T01331067 10133 21067 50009
Altimeter 30.35"
Temperature 13.3°C (55.9°F)
Wind 70° at 7KT with gusts to 15KT
Clouds Skies are clear.
Visibility 10.0mi
Time observed: 2021-11-30T17:54:00Z

Grand Canyon National Park (Airport) Details

Status Operational
Activation May 1962
Ownership Public
Usage Public
Chart LAS VEGAS
ATC on-site Yes
Beacon schedule sunset-sunrise
Beacon color clear green

Grand Canyon National Park (Airport) Contacts

Owner STATE OF ARIZONA
Owner address DEPARTMENT OF TRANS-ASD, 206 S. 17TH AVE MD178, PHOENIX, AZ 85007
Owner phone (602) 712-6255
Manager BRADLEY HAGEN
Manager address 1658 SO LITCHFIELD RD, GOODYEAR, AZ 85338
Manager phone 623-932-4550

Grand Canyon National Park Radio Frequencies

Grand Canyon National Park (Airport) Radio Frequencies

UNICOM 122.95
Common traffic advisory frequency (CTAF) 119